Terminal Aerodrome Forecast
Issued by NWS Duluth, MN

Home | Current Version | Previous Version | Text Only | Print | Product List | Glossary Off
Versions: 1 2 3 4 5 6 7 8 9 10 11 12 13 14 15 16 17 18 19 20 21 22 23 24 25 26

000
FTUS43 KDLH 241139
TAFINL
TAF
KINL 241139Z 2412/2512 24004KT P6SM OVC013
      TEMPO 2412/2415 OVC009
     FM242000 VRB03KT P6SM OVC020
     FM250200 35003KT P6SM OVC015
     FM250900 34004KT P6SM OVC009=

USA.gov is the U.S. government's official web portal to all federal, state and local government web resources and services.